sensor_id;sensor_type;location;lat;lon;timestamp;P1;durP1;ratioP1;P2;durP2;ratioP2
65998;SDS011;52766;56.008;37.440;2023-02-04T00:01:11;12.73;;;6.45;;
65998;SDS011;52766;56.008;37.440;2023-02-04T00:03:37;15.27;;;6.80;;
65998;SDS011;52766;56.008;37.440;2023-02-04T00:06:03;15.20;;;6.95;;
65998;SDS011;52766;56.008;37.440;2023-02-04T00:08:28;17.15;;;6.78;;
65998;SDS011;52766;56.008;37.440;2023-02-04T00:10:56;14.73;;;6.38;;
65998;SDS011;52766;56.008;37.440;2023-02-04T00:13:21;14.80;;;6.65;;
65998;SDS011;52766;56.008;37.440;2023-02-04T00:15:47;17.15;;;7.43;;
65998;SDS011;52766;56.008;37.440;2023-02-04T00:18:13;14.93;;;6.90;;
65998;SDS011;52766;56.008;37.440;2023-02-04T00:20:39;16.02;;;6.65;;
65998;SDS011;52766;56.008;37.440;2023-02-04T00:23:05;16.67;;;6.65;;
65998;SDS011;52766;56.008;37.440;2023-02-04T00:25:31;16.67;;;6.43;;
65998;SDS011;52766;56.008;37.440;2023-02-04T00:27:57;15.48;;;6.63;;
65998;SDS011;52766;56.008;37.440;2023-02-04T00:30:26;11.60;;;5.82;;
65998;SDS011;52766;56.008;37.440;2023-02-04T00:32:52;17.20;;;6.90;;
65998;SDS011;52766;56.008;37.440;2023-02-04T00:35:19;15.20;;;7.13;;
65998;SDS011;52766;56.008;37.440;2023-02-04T00:37:45;18.25;;;7.55;;
65998;SDS011;52766;56.008;37.440;2023-02-04T00:40:11;17.70;;;7.05;;
65998;SDS011;52766;56.008;37.440;2023-02-04T00:42:38;14.50;;;6.22;;
65998;SDS011;52766;56.008;37.440;2023-02-04T00:45:04;16.00;;;7.43;;
65998;SDS011;52766;56.008;37.440;2023-02-04T00:47:30;16.17;;;6.85;;
65998;SDS011;52766;56.008;37.440;2023-02-04T00:49:56;15.68;;;7.55;;
65998;SDS011;52766;56.008;37.440;2023-02-04T00:52:23;14.80;;;6.88;;
65998;SDS011;52766;56.008;37.440;2023-02-04T00:54:49;13.40;;;5.97;;
65998;SDS011;52766;56.008;37.440;2023-02-04T00:57:14;13.23;;;5.80;;
65998;SDS011;52766;56.008;37.440;2023-02-04T00:59:40;14.00;;;7.55;;
65998;SDS011;52766;56.008;37.440;2023-02-04T01:02:06;15.63;;;6.75;;
65998;SDS011;52766;56.008;37.440;2023-02-04T01:04:33;16.42;;;7.13;;
65998;SDS011;52766;56.008;37.440;2023-02-04T01:06:59;16.00;;;6.70;;
65998;SDS011;52766;56.008;37.440;2023-02-04T01:09:25;16.67;;;7.18;;
65998;SDS011;52766;56.008;37.440;2023-02-04T01:11:51;16.25;;;6.63;;
65998;SDS011;52766;56.008;37.440;2023-02-04T01:14:19;13.50;;;6.97;;
65998;SDS011;52766;56.008;37.440;2023-02-04T01:16:44;17.02;;;7.07;;
65998;SDS011;52766;56.008;37.440;2023-02-04T01:19:10;12.90;;;6.72;;
65998;SDS011;52766;56.008;37.440;2023-02-04T01:21:36;15.43;;;7.20;;
65998;SDS011;52766;56.008;37.440;2023-02-04T01:24:02;16.05;;;6.97;;
65998;SDS011;52766;56.008;37.440;2023-02-04T01:26:28;14.48;;;7.15;;
65998;SDS011;52766;56.008;37.440;2023-02-04T01:28:54;13.73;;;6.13;;
65998;SDS011;52766;56.008;37.440;2023-02-04T01:31:20;15.15;;;6.70;;
65998;SDS011;52766;56.008;37.440;2023-02-04T01:33:47;13.75;;;6.53;;
65998;SDS011;52766;56.008;37.440;2023-02-04T01:36:13;15.25;;;6.65;;
65998;SDS011;52766;56.008;37.440;2023-02-04T01:38:39;16.13;;;7.20;;
65998;SDS011;52766;56.008;37.440;2023-02-04T01:41:05;14.68;;;6.72;;
65998;SDS011;52766;56.008;37.440;2023-02-04T01:43:32;15.20;;;6.50;;
65998;SDS011;52766;56.008;37.440;2023-02-04T01:45:58;15.77;;;7.25;;
65998;SDS011;52766;56.008;37.440;2023-02-04T01:48:26;13.90;;;6.97;;
65998;SDS011;52766;56.008;37.440;2023-02-04T01:50:53;15.13;;;7.30;;
65998;SDS011;52766;56.008;37.440;2023-02-04T01:53:25;16.63;;;7.05;;
65998;SDS011;52766;56.008;37.440;2023-02-04T01:55:51;16.50;;;7.97;;
65998;SDS011;52766;56.008;37.440;2023-02-04T01:58:17;18.23;;;8.05;;
65998;SDS011;52766;56.008;37.440;2023-02-04T02:00:43;17.00;;;7.35;;
65998;SDS011;52766;56.008;37.440;2023-02-04T02:03:09;19.08;;;7.43;;
65998;SDS011;52766;56.008;37.440;2023-02-04T02:08:05;15.27;;;6.93;;
65998;SDS011;52766;56.008;37.440;2023-02-04T02:10:31;14.15;;;6.85;;
65998;SDS011;52766;56.008;37.440;2023-02-04T02:12:57;15.75;;;5.93;;
65998;SDS011;52766;56.008;37.440;2023-02-04T02:15:23;14.63;;;6.25;;
65998;SDS011;52766;56.008;37.440;2023-02-04T02:17:50;15.05;;;7.20;;
65998;SDS011;52766;56.008;37.440;2023-02-04T02:20:17;18.05;;;6.40;;
65998;SDS011;52766;56.008;37.440;2023-02-04T02:25:45;14.95;;;6.25;;
65998;SDS011;52766;56.008;37.440;2023-02-04T02:28:12;15.52;;;6.03;;
65998;SDS011;52766;56.008;37.440;2023-02-04T02:30:40;16.05;;;7.20;;
65998;SDS011;52766;56.008;37.440;2023-02-04T02:33:07;12.40;;;5.25;;
65998;SDS011;52766;56.008;37.440;2023-02-04T02:35:32;14.07;;;6.90;;
65998;SDS011;52766;56.008;37.440;2023-02-04T02:38:01;17.15;;;6.47;;
65998;SDS011;52766;56.008;37.440;2023-02-04T02:40:29;13.52;;;5.00;;
65998;SDS011;52766;56.008;37.440;2023-02-04T02:42:54;10.85;;;4.38;;
65998;SDS011;52766;56.008;37.440;2023-02-04T02:45:24;12.25;;;5.03;;
65998;SDS011;52766;56.008;37.440;2023-02-04T02:47:52;23.33;;;8.80;;
65998;SDS011;52766;56.008;37.440;2023-02-04T02:50:19;25.17;;;10.60;;
65998;SDS011;52766;56.008;37.440;2023-02-04T02:52:46;21.50;;;9.02;;
65998;SDS011;52766;56.008;37.440;2023-02-04T02:55:13;18.25;;;7.80;;
65998;SDS011;52766;56.008;37.440;2023-02-04T02:57:47;15.30;;;6.28;;
65998;SDS011;52766;56.008;37.440;2023-02-04T03:00:20;17.60;;;7.00;;
65998;SDS011;52766;56.008;37.440;2023-02-04T03:02:56;12.68;;;5.32;;
65998;SDS011;52766;56.008;37.440;2023-02-04T03:05:40;12.40;;;5.25;;
65998;SDS011;52766;56.008;37.440;2023-02-04T03:11:01;8.85;;;3.42;;
65998;SDS011;52766;56.008;37.440;2023-02-04T03:13:27;11.05;;;5.05;;
65998;SDS011;52766;56.008;37.440;2023-02-04T03:15:55;11.40;;;4.55;;
65998;SDS011;52766;56.008;37.440;2023-02-04T03:18:21;16.23;;;7.05;;
65998;SDS011;52766;56.008;37.440;2023-02-04T03:20:48;8.02;;;3.85;;
65998;SDS011;52766;56.008;37.440;2023-02-04T03:23:15;13.15;;;5.30;;
65998;SDS011;52766;56.008;37.440;2023-02-04T03:25:42;13.35;;;5.47;;
65998;SDS011;52766;56.008;37.440;2023-02-04T03:28:08;10.77;;;3.90;;
65998;SDS011;52766;56.008;37.440;2023-02-04T03:30:35;10.45;;;4.78;;
65998;SDS011;52766;56.008;37.440;2023-02-04T03:33:01;9.82;;;4.68;;
65998;SDS011;52766;56.008;37.440;2023-02-04T03:35:26;12.25;;;4.90;;
65998;SDS011;52766;56.008;37.440;2023-02-04T03:37:52;11.07;;;4.25;;
65998;SDS011;52766;56.008;37.440;2023-02-04T03:40:19;8.85;;;3.70;;
65998;SDS011;52766;56.008;37.440;2023-02-04T03:42:46;10.57;;;3.85;;
65998;SDS011;52766;56.008;37.440;2023-02-04T03:48:03;9.45;;;4.80;;
65998;SDS011;52766;56.008;37.440;2023-02-04T03:50:32;10.73;;;4.43;;
65998;SDS011;52766;56.008;37.440;2023-02-04T03:53:01;9.63;;;4.25;;
65998;SDS011;52766;56.008;37.440;2023-02-04T03:55:28;11.48;;;5.35;;
65998;SDS011;52766;56.008;37.440;2023-02-04T03:57:56;12.50;;;5.38;;
65998;SDS011;52766;56.008;37.440;2023-02-04T04:00:22;11.38;;;5.07;;
65998;SDS011;52766;56.008;37.440;2023-02-04T04:02:48;11.07;;;5.30;;
65998;SDS011;52766;56.008;37.440;2023-02-04T04:05:14;10.95;;;4.75;;
65998;SDS011;52766;56.008;37.440;2023-02-04T04:07:40;8.50;;;4.38;;
65998;SDS011;52766;56.008;37.440;2023-02-04T04:10:06;12.20;;;5.60;;
65998;SDS011;52766;56.008;37.440;2023-02-04T04:12:32;11.60;;;5.63;;
65998;SDS011;52766;56.008;37.440;2023-02-04T04:14:58;11.27;;;5.45;;
65998;SDS011;52766;56.008;37.440;2023-02-04T04:17:24;10.98;;;5.00;;
65998;SDS011;52766;56.008;37.440;2023-02-04T04:19:52;12.23;;;5.55;;
65998;SDS011;52766;56.008;37.440;2023-02-04T04:22:18;9.40;;;4.47;;
65998;SDS011;52766;56.008;37.440;2023-02-04T04:24:46;12.23;;;5.18;;
65998;SDS011;52766;56.008;37.440;2023-02-04T04:27:17;12.77;;;5.57;;
65998;SDS011;52766;56.008;37.440;2023-02-04T04:29:45;9.80;;;4.53;;
65998;SDS011;52766;56.008;37.440;2023-02-04T04:35:11;10.50;;;4.75;;
65998;SDS011;52766;56.008;37.440;2023-02-04T04:37:40;10.73;;;5.28;;
65998;SDS011;52766;56.008;37.440;2023-02-04T04:40:10;11.65;;;5.70;;
65998;SDS011;52766;56.008;37.440;2023-02-04T04:42:36;15.38;;;5.95;;
65998;SDS011;52766;56.008;37.440;2023-02-04T04:45:04;10.10;;;5.38;;
65998;SDS011;52766;56.008;37.440;2023-02-04T04:47:35;11.52;;;5.65;;
65998;SDS011;52766;56.008;37.440;2023-02-04T04:50:23;11.60;;;5.15;;
65998;SDS011;52766;56.008;37.440;2023-02-04T04:52:53;15.32;;;5.80;;
65998;SDS011;52766;56.008;37.440;2023-02-04T04:55:19;11.07;;;4.57;;
65998;SDS011;52766;56.008;37.440;2023-02-04T04:57:46;11.57;;;4.88;;
65998;SDS011;52766;56.008;37.440;2023-02-04T05:00:14;12.88;;;5.82;;
65998;SDS011;52766;56.008;37.440;2023-02-04T05:02:41;12.48;;;5.97;;
65998;SDS011;52766;56.008;37.440;2023-02-04T05:05:24;13.52;;;5.55;;
65998;SDS011;52766;56.008;37.440;2023-02-04T05:07:51;12.77;;;5.43;;
65998;SDS011;52766;56.008;37.440;2023-02-04T05:10:20;13.57;;;5.47;;
65998;SDS011;52766;56.008;37.440;2023-02-04T05:12:49;14.98;;;6.43;;
65998;SDS011;52766;56.008;37.440;2023-02-04T05:15:28;19.92;;;8.23;;
65998;SDS011;52766;56.008;37.440;2023-02-04T05:17:57;17.27;;;7.72;;
65998;SDS011;52766;56.008;37.440;2023-02-04T05:20:23;17.95;;;7.13;;
65998;SDS011;52766;56.008;37.440;2023-02-04T05:22:54;15.43;;;6.82;;
65998;SDS011;52766;56.008;37.440;2023-02-04T05:25:22;17.15;;;6.25;;
65998;SDS011;52766;56.008;37.440;2023-02-04T05:27:47;16.00;;;6.50;;
65998;SDS011;52766;56.008;37.440;2023-02-04T05:30:14;14.63;;;6.22;;
65998;SDS011;52766;56.008;37.440;2023-02-04T05:32:41;15.30;;;6.65;;
65998;SDS011;52766;56.008;37.440;2023-02-04T05:35:07;13.35;;;6.43;;
65998;SDS011;52766;56.008;37.440;2023-02-04T05:37:43;13.30;;;6.65;;
65998;SDS011;52766;56.008;37.440;2023-02-04T05:40:09;15.45;;;6.68;;
65998;SDS011;52766;56.008;37.440;2023-02-04T05:45:44;18.75;;;8.30;;
65998;SDS011;52766;56.008;37.440;2023-02-04T05:48:17;17.20;;;7.20;;
65998;SDS011;52766;56.008;37.440;2023-02-04T05:50:51;14.02;;;7.00;;
65998;SDS011;52766;56.008;37.440;2023-02-04T05:53:29;12.30;;;5.80;;
65998;SDS011;52766;56.008;37.440;2023-02-04T05:56:00;15.32;;;7.18;;
65998;SDS011;52766;56.008;37.440;2023-02-04T05:58:31;17.90;;;7.28;;
65998;SDS011;52766;56.008;37.440;2023-02-04T06:03:29;15.98;;;7.18;;
65998;SDS011;52766;56.008;37.440;2023-02-04T06:08:51;15.02;;;6.45;;
65998;SDS011;52766;56.008;37.440;2023-02-04T06:11:19;17.70;;;7.93;;
65998;SDS011;52766;56.008;37.440;2023-02-04T06:13:56;18.27;;;9.20;;
65998;SDS011;52766;56.008;37.440;2023-02-04T06:16:23;26.40;;;11.02;;
65998;SDS011;52766;56.008;37.440;2023-02-04T06:19:02;22.40;;;9.35;;
65998;SDS011;52766;56.008;37.440;2023-02-04T06:24:53;15.50;;;7.43;;
65998;SDS011;52766;56.008;37.440;2023-02-04T06:27:24;15.48;;;7.57;;
65998;SDS011;52766;56.008;37.440;2023-02-04T06:29:55;16.33;;;7.35;;
65998;SDS011;52766;56.008;37.440;2023-02-04T06:32:43;15.05;;;6.65;;
65998;SDS011;52766;56.008;37.440;2023-02-04T06:35:12;14.70;;;6.55;;
65998;SDS011;52766;56.008;37.440;2023-02-04T06:37:51;15.20;;;6.88;;
65998;SDS011;52766;56.008;37.440;2023-02-04T06:43:23;12.40;;;5.70;;
65998;SDS011;52766;56.008;37.440;2023-02-04T06:49:19;13.90;;;6.30;;
65998;SDS011;52766;56.008;37.440;2023-02-04T06:52:01;12.90;;;6.40;;
65998;SDS011;52766;56.008;37.440;2023-02-04T06:57:44;16.88;;;6.85;;
65998;SDS011;52766;56.008;37.440;2023-02-04T07:10:43;15.98;;;7.10;;
65998;SDS011;52766;56.008;37.440;2023-02-04T07:13:23;16.45;;;7.18;;
65998;SDS011;52766;56.008;37.440;2023-02-04T07:27:09;15.75;;;7.43;;
65998;SDS011;52766;56.008;37.440;2023-02-04T07:37:35;12.95;;;6.80;;
65998;SDS011;52766;56.008;37.440;2023-02-04T07:40:38;17.67;;;7.93;;
65998;SDS011;52766;56.008;37.440;2023-02-04T07:53:58;14.43;;;7.00;;
65998;SDS011;52766;56.008;37.440;2023-02-04T07:56:40;16.38;;;7.32;;
65998;SDS011;52766;56.008;37.440;2023-02-04T08:03:50;15.75;;;7.32;;
65998;SDS011;52766;56.008;37.440;2023-02-04T08:06:16;17.55;;;7.70;;
65998;SDS011;52766;56.008;37.440;2023-02-04T08:08:42;14.63;;;7.60;;
65998;SDS011;52766;56.008;37.440;2023-02-04T08:11:16;16.77;;;7.15;;
65998;SDS011;52766;56.008;37.440;2023-02-04T08:13:48;16.63;;;8.75;;
65998;SDS011;52766;56.008;37.440;2023-02-04T08:16:19;18.27;;;7.70;;
65998;SDS011;52766;56.008;37.440;2023-02-04T08:18:51;18.77;;;8.35;;
65998;SDS011;52766;56.008;37.440;2023-02-04T08:24:46;21.02;;;8.23;;
65998;SDS011;52766;56.008;37.440;2023-02-04T08:28:08;16.60;;;7.22;;
65998;SDS011;52766;56.008;37.440;2023-02-04T09:15:35;13.43;;;6.40;;
65998;SDS011;52766;56.008;37.440;2023-02-04T09:18:17;14.35;;;5.60;;
65998;SDS011;52766;56.008;37.440;2023-02-04T09:24:35;15.05;;;7.28;;
65998;SDS011;52766;56.008;37.440;2023-02-04T09:27:23;13.93;;;7.05;;
65998;SDS011;52766;56.008;37.440;2023-02-04T09:38:07;18.88;;;8.77;;
65998;SDS011;52766;56.008;37.440;2023-02-04T10:07:11;14.85;;;7.28;;
65998;SDS011;52766;56.008;37.440;2023-02-04T10:10:35;16.73;;;7.35;;
65998;SDS011;52766;56.008;37.440;2023-02-04T10:13:16;20.77;;;8.15;;
65998;SDS011;52766;56.008;37.440;2023-02-04T10:16:03;20.67;;;8.30;;
65998;SDS011;52766;56.008;37.440;2023-02-04T10:18:41;19.00;;;9.13;;
65998;SDS011;52766;56.008;37.440;2023-02-04T10:21:18;20.75;;;9.40;;
65998;SDS011;52766;56.008;37.440;2023-02-04T10:24:27;17.90;;;8.45;;
65998;SDS011;52766;56.008;37.440;2023-02-04T10:27:33;19.98;;;9.80;;
65998;SDS011;52766;56.008;37.440;2023-02-04T10:29:56;20.90;;;9.45;;
65998;SDS011;52766;56.008;37.440;2023-02-04T10:32:26;21.83;;;9.95;;
65998;SDS011;52766;56.008;37.440;2023-02-04T10:42:18;21.35;;;10.13;;
65998;SDS011;52766;56.008;37.440;2023-02-04T10:45:45;19.20;;;8.27;;
65998;SDS011;52766;56.008;37.440;2023-02-04T10:48:14;23.58;;;9.48;;
65998;SDS011;52766;56.008;37.440;2023-02-04T10:50:45;21.23;;;9.63;;
65998;SDS011;52766;56.008;37.440;2023-02-04T10:53:20;18.23;;;8.80;;
65998;SDS011;52766;56.008;37.440;2023-02-04T10:56:17;17.02;;;8.27;;
65998;SDS011;52766;56.008;37.440;2023-02-04T11:02:00;16.95;;;8.00;;
65998;SDS011;52766;56.008;37.440;2023-02-04T11:04:39;18.70;;;8.68;;
65998;SDS011;52766;56.008;37.440;2023-02-04T11:10:03;21.83;;;9.18;;
65998;SDS011;52766;56.008;37.440;2023-02-04T11:15:45;21.00;;;9.20;;
65998;SDS011;52766;56.008;37.440;2023-02-04T11:20:51;20.48;;;9.25;;
65998;SDS011;52766;56.008;37.440;2023-02-04T11:26:11;18.90;;;8.65;;
65998;SDS011;52766;56.008;37.440;2023-02-04T11:34:31;20.75;;;9.07;;
65998;SDS011;52766;56.008;37.440;2023-02-04T11:37:39;19.88;;;8.55;;
65998;SDS011;52766;56.008;37.440;2023-02-04T11:40:20;16.48;;;8.45;;
65998;SDS011;52766;56.008;37.440;2023-02-04T11:43:12;19.45;;;9.23;;
65998;SDS011;52766;56.008;37.440;2023-02-04T11:45:40;21.48;;;8.10;;
65998;SDS011;52766;56.008;37.440;2023-02-04T11:48:16;22.15;;;9.02;;
65998;SDS011;52766;56.008;37.440;2023-02-04T11:50:53;20.92;;;8.82;;
65998;SDS011;52766;56.008;37.440;2023-02-04T11:53:23;19.20;;;8.38;;
65998;SDS011;52766;56.008;37.440;2023-02-04T11:55:53;18.27;;;9.32;;
65998;SDS011;52766;56.008;37.440;2023-02-04T11:58:21;17.92;;;8.90;;
65998;SDS011;52766;56.008;37.440;2023-02-04T12:00:51;22.88;;;8.65;;
65998;SDS011;52766;56.008;37.440;2023-02-04T12:05:57;21.63;;;9.85;;
65998;SDS011;52766;56.008;37.440;2023-02-04T12:08:34;22.13;;;9.50;;
65998;SDS011;52766;56.008;37.440;2023-02-04T12:11:08;19.88;;;9.13;;
65998;SDS011;52766;56.008;37.440;2023-02-04T12:17:18;21.42;;;8.82;;
65998;SDS011;52766;56.008;37.440;2023-02-04T12:19:44;26.73;;;10.32;;
65998;SDS011;52766;56.008;37.440;2023-02-04T12:22:13;20.17;;;8.98;;
65998;SDS011;52766;56.008;37.440;2023-02-04T12:24:40;22.15;;;8.85;;
65998;SDS011;52766;56.008;37.440;2023-02-04T12:27:10;21.08;;;8.65;;
65998;SDS011;52766;56.008;37.440;2023-02-04T12:29:40;17.52;;;9.43;;
65998;SDS011;52766;56.008;37.440;2023-02-04T12:32:10;22.73;;;9.48;;
65998;SDS011;52766;56.008;37.440;2023-02-04T12:34:43;23.13;;;10.40;;
65998;SDS011;52766;56.008;37.440;2023-02-04T12:37:10;21.90;;;9.73;;
65998;SDS011;52766;56.008;37.440;2023-02-04T12:39:37;20.52;;;9.85;;
65998;SDS011;52766;56.008;37.440;2023-02-04T12:42:05;24.60;;;11.23;;
65998;SDS011;52766;56.008;37.440;2023-02-04T12:47:36;27.20;;;11.38;;
65998;SDS011;52766;56.008;37.440;2023-02-04T12:50:08;21.88;;;10.15;;
65998;SDS011;52766;56.008;37.440;2023-02-04T12:52:43;22.17;;;10.52;;
65998;SDS011;52766;56.008;37.440;2023-02-04T12:55:08;23.17;;;10.15;;
65998;SDS011;52766;56.008;37.440;2023-02-04T12:57:36;21.15;;;9.10;;
65998;SDS011;52766;56.008;37.440;2023-02-04T13:00:11;25.75;;;10.85;;
65998;SDS011;52766;56.008;37.440;2023-02-04T13:02:45;27.50;;;12.82;;
65998;SDS011;52766;56.008;37.440;2023-02-04T13:05:35;23.92;;;10.63;;
65998;SDS011;52766;56.008;37.440;2023-02-04T13:08:06;26.15;;;11.32;;
65998;SDS011;52766;56.008;37.440;2023-02-04T13:10:41;22.33;;;9.63;;
65998;SDS011;52766;56.008;37.440;2023-02-04T13:17:24;25.23;;;10.10;;
65998;SDS011;52766;56.008;37.440;2023-02-04T13:23:54;23.52;;;11.07;;
65998;SDS011;52766;56.008;37.440;2023-02-04T13:26:30;27.02;;;12.23;;
65998;SDS011;52766;56.008;37.440;2023-02-04T13:40:55;27.52;;;12.95;;
65998;SDS011;52766;56.008;37.440;2023-02-04T13:48:39;30.85;;;12.95;;
65998;SDS011;52766;56.008;37.440;2023-02-04T13:51:37;28.80;;;11.68;;
65998;SDS011;52766;56.008;37.440;2023-02-04T14:01:38;28.13;;;11.35;;
65998;SDS011;52766;56.008;37.440;2023-02-04T14:04:50;27.23;;;10.63;;
65998;SDS011;52766;56.008;37.440;2023-02-04T14:07:27;26.63;;;11.40;;
65998;SDS011;52766;56.008;37.440;2023-02-04T14:10:00;25.33;;;11.52;;
65998;SDS011;52766;56.008;37.440;2023-02-04T14:15:31;25.42;;;10.38;;
65998;SDS011;52766;56.008;37.440;2023-02-04T14:18:02;28.38;;;11.55;;
65998;SDS011;52766;56.008;37.440;2023-02-04T14:20:58;25.75;;;10.57;;
65998;SDS011;52766;56.008;37.440;2023-02-04T14:23:24;25.30;;;11.02;;
65998;SDS011;52766;56.008;37.440;2023-02-04T14:28:44;28.45;;;11.35;;
65998;SDS011;52766;56.008;37.440;2023-02-04T14:31:19;21.40;;;10.63;;
65998;SDS011;52766;56.008;37.440;2023-02-04T14:44:57;27.27;;;10.55;;
65998;SDS011;52766;56.008;37.440;2023-02-04T15:21:10;26.35;;;10.82;;
65998;SDS011;52766;56.008;37.440;2023-02-04T15:24:14;23.48;;;9.85;;
65998;SDS011;52766;56.008;37.440;2023-02-04T15:28:27;24.73;;;9.70;;
65998;SDS011;52766;56.008;37.440;2023-02-04T15:32:41;22.15;;;9.02;;
65998;SDS011;52766;56.008;37.440;2023-02-04T15:38:56;19.95;;;8.13;;
65998;SDS011;52766;56.008;37.440;2023-02-04T15:41:40;24.15;;;10.43;;
65998;SDS011;52766;56.008;37.440;2023-02-04T15:44:08;22.63;;;9.05;;
65998;SDS011;52766;56.008;37.440;2023-02-04T15:46:38;25.55;;;9.63;;
65998;SDS011;52766;56.008;37.440;2023-02-04T15:49:14;22.25;;;8.85;;
65998;SDS011;52766;56.008;37.440;2023-02-04T16:07:30;23.10;;;9.30;;
65998;SDS011;52766;56.008;37.440;2023-02-04T16:14:14;20.05;;;8.85;;
65998;SDS011;52766;56.008;37.440;2023-02-04T16:16:58;21.20;;;8.82;;
65998;SDS011;52766;56.008;37.440;2023-02-04T16:19:56;25.27;;;8.45;;
65998;SDS011;52766;56.008;37.440;2023-02-04T16:22:50;20.85;;;8.27;;
65998;SDS011;52766;56.008;37.440;2023-02-04T17:27:46;19.45;;;8.40;;
65998;SDS011;52766;56.008;37.440;2023-02-04T18:55:40;11.13;;;5.28;;
65998;SDS011;52766;56.008;37.440;2023-02-04T19:16:17;9.85;;;4.55;;
65998;SDS011;52766;56.008;37.440;2023-02-04T19:40:50;9.00;;;4.30;;
65998;SDS011;52766;56.008;37.440;2023-02-04T19:43:42;11.10;;;5.25;;
65998;SDS011;52766;56.008;37.440;2023-02-04T19:46:22;11.85;;;5.25;;
65998;SDS011;52766;56.008;37.440;2023-02-04T19:52:59;9.75;;;4.30;;
65998;SDS011;52766;56.008;37.440;2023-02-04T19:55:52;10.52;;;4.80;;
65998;SDS011;52766;56.008;37.440;2023-02-04T19:58:34;10.75;;;4.93;;
65998;SDS011;52766;56.008;37.440;2023-02-04T20:09:53;9.13;;;4.40;;
65998;SDS011;52766;56.008;37.440;2023-02-04T20:13:17;12.70;;;4.38;;
65998;SDS011;52766;56.008;37.440;2023-02-04T20:25:47;8.48;;;3.95;;
65998;SDS011;52766;56.008;37.440;2023-02-04T20:31:29;10.45;;;4.97;;
65998;SDS011;52766;56.008;37.440;2023-02-04T20:34:07;9.20;;;4.20;;
65998;SDS011;52766;56.008;37.440;2023-02-04T20:37:09;8.65;;;3.70;;
65998;SDS011;52766;56.008;37.440;2023-02-04T20:39:55;9.38;;;4.70;;
65998;SDS011;52766;56.008;37.440;2023-02-04T20:46:06;8.70;;;4.53;;
65998;SDS011;52766;56.008;37.440;2023-02-04T20:48:53;10.75;;;4.55;;
65998;SDS011;52766;56.008;37.440;2023-02-04T21:03:16;10.95;;;4.32;;
65998;SDS011;52766;56.008;37.440;2023-02-04T21:06:04;10.90;;;4.93;;
65998;SDS011;52766;56.008;37.440;2023-02-04T21:16:23;11.20;;;4.57;;
65998;SDS011;52766;56.008;37.440;2023-02-04T21:19:06;8.38;;;3.65;;
65998;SDS011;52766;56.008;37.440;2023-02-04T21:21:58;8.20;;;4.20;;
65998;SDS011;52766;56.008;37.440;2023-02-04T21:24:26;12.52;;;4.68;;
65998;SDS011;52766;56.008;37.440;2023-02-04T21:26:58;9.88;;;4.28;;
65998;SDS011;52766;56.008;37.440;2023-02-04T21:29:24;10.95;;;4.28;;
65998;SDS011;52766;56.008;37.440;2023-02-04T21:31:51;11.85;;;5.72;;
65998;SDS011;52766;56.008;37.440;2023-02-04T21:34:19;11.13;;;3.75;;
65998;SDS011;52766;56.008;37.440;2023-02-04T21:36:48;9.05;;;4.88;;
65998;SDS011;52766;56.008;37.440;2023-02-04T21:39:16;10.50;;;5.28;;
65998;SDS011;52766;56.008;37.440;2023-02-04T21:41:50;10.43;;;4.63;;
65998;SDS011;52766;56.008;37.440;2023-02-04T21:44:41;13.45;;;6.15;;
65998;SDS011;52766;56.008;37.440;2023-02-04T21:47:09;12.45;;;5.35;;
65998;SDS011;52766;56.008;37.440;2023-02-04T21:49:42;15.55;;;5.88;;
65998;SDS011;52766;56.008;37.440;2023-02-04T21:56:09;12.85;;;5.15;;
65998;SDS011;52766;56.008;37.440;2023-02-04T21:58:36;10.90;;;5.18;;
65998;SDS011;52766;56.008;37.440;2023-02-04T22:01:03;8.82;;;4.28;;
65998;SDS011;52766;56.008;37.440;2023-02-04T22:03:32;9.90;;;4.88;;
65998;SDS011;52766;56.008;37.440;2023-02-04T22:05:59;12.68;;;5.75;;
65998;SDS011;52766;56.008;37.440;2023-02-04T22:08:28;12.43;;;5.75;;
65998;SDS011;52766;56.008;37.440;2023-02-04T22:10:58;10.13;;;4.70;;
65998;SDS011;52766;56.008;37.440;2023-02-04T22:13:26;10.40;;;4.57;;
65998;SDS011;52766;56.008;37.440;2023-02-04T22:16:01;9.07;;;4.47;;
65998;SDS011;52766;56.008;37.440;2023-02-04T22:18:50;11.93;;;4.45;;
65998;SDS011;52766;56.008;37.440;2023-02-04T22:21:17;11.05;;;5.20;;
65998;SDS011;52766;56.008;37.440;2023-02-04T22:23:43;11.10;;;5.28;;
65998;SDS011;52766;56.008;37.440;2023-02-04T22:26:09;15.88;;;5.20;;
65998;SDS011;52766;56.008;37.440;2023-02-04T22:28:35;15.02;;;7.40;;
65998;SDS011;52766;56.008;37.440;2023-02-04T22:31:02;15.18;;;7.10;;
65998;SDS011;52766;56.008;37.440;2023-02-04T22:33:27;14.32;;;7.25;;
65998;SDS011;52766;56.008;37.440;2023-02-04T22:38:53;13.63;;;5.65;;
65998;SDS011;52766;56.008;37.440;2023-02-04T22:41:24;13.60;;;5.65;;
65998;SDS011;52766;56.008;37.440;2023-02-04T22:43:53;11.15;;;5.35;;
65998;SDS011;52766;56.008;37.440;2023-02-04T22:46:21;12.75;;;5.45;;
65998;SDS011;52766;56.008;37.440;2023-02-04T22:48:54;11.30;;;5.53;;
65998;SDS011;52766;56.008;37.440;2023-02-04T22:51:22;13.45;;;5.80;;
65998;SDS011;52766;56.008;37.440;2023-02-04T22:53:49;13.50;;;5.68;;
65998;SDS011;52766;56.008;37.440;2023-02-04T22:56:15;13.10;;;6.10;;
65998;SDS011;52766;56.008;37.440;2023-02-04T22:58:46;10.75;;;5.25;;
65998;SDS011;52766;56.008;37.440;2023-02-04T23:01:14;14.20;;;6.07;;
65998;SDS011;52766;56.008;37.440;2023-02-04T23:03:40;13.93;;;6.22;;
65998;SDS011;52766;56.008;37.440;2023-02-04T23:06:07;15.32;;;6.10;;
65998;SDS011;52766;56.008;37.440;2023-02-04T23:08:33;12.10;;;5.80;;
65998;SDS011;52766;56.008;37.440;2023-02-04T23:10:59;13.85;;;6.93;;
65998;SDS011;52766;56.008;37.440;2023-02-04T23:13:26;22.45;;;9.75;;
65998;SDS011;52766;56.008;37.440;2023-02-04T23:15:53;29.05;;;13.90;;
65998;SDS011;52766;56.008;37.440;2023-02-04T23:18:19;21.02;;;11.45;;
65998;SDS011;52766;56.008;37.440;2023-02-04T23:20:45;19.88;;;9.57;;
65998;SDS011;52766;56.008;37.440;2023-02-04T23:23:14;15.07;;;7.70;;
65998;SDS011;52766;56.008;37.440;2023-02-04T23:25:46;21.15;;;10.98;;
65998;SDS011;52766;56.008;37.440;2023-02-04T23:28:13;13.55;;;6.65;;
65998;SDS011;52766;56.008;37.440;2023-02-04T23:30:45;15.77;;;7.55;;
65998;SDS011;52766;56.008;37.440;2023-02-04T23:33:12;14.85;;;7.18;;
65998;SDS011;52766;56.008;37.440;2023-02-04T23:35:42;13.30;;;6.75;;
65998;SDS011;52766;56.008;37.440;2023-02-04T23:38:07;14.90;;;6.63;;
65998;SDS011;52766;56.008;37.440;2023-02-04T23:40:35;13.75;;;6.40;;
65998;SDS011;52766;56.008;37.440;2023-02-04T23:43:02;12.88;;;6.95;;
65998;SDS011;52766;56.008;37.440;2023-02-04T23:45:29;12.88;;;6.65;;
65998;SDS011;52766;56.008;37.440;2023-02-04T23:47:56;13.45;;;6.25;;
65998;SDS011;52766;56.008;37.440;2023-02-04T23:50:23;13.23;;;6.03;;
65998;SDS011;52766;56.008;37.440;2023-02-04T23:52:49;16.13;;;6.57;;
65998;SDS011;52766;56.008;37.440;2023-02-04T23:55:18;13.02;;;7.55;;
65998;SDS011;52766;56.008;37.440;2023-02-04T23:57:44;18.70;;;7.40;;
